createdAt,value
2022-10-13T00:00:50.285Z,15.47
2022-10-13T00:03:18.914Z,15.00
2022-10-13T00:05:50.342Z,15.40
2022-10-13T00:08:20.585Z,15.90
2022-10-13T00:10:49.771Z,14.70
2022-10-13T00:13:22.308Z,14.10
2022-10-13T00:15:50.237Z,14.07
2022-10-13T00:18:18.386Z,13.70
2022-10-13T00:20:49.487Z,13.30
2022-10-13T00:23:18.496Z,14.53
2022-10-13T00:25:48.957Z,13.77
2022-10-13T00:28:18.319Z,13.63
2022-10-13T00:30:47.336Z,14.33
2022-10-13T00:33:15.405Z,15.63
2022-10-13T00:35:44.306Z,14.57
2022-10-13T00:38:13.993Z,15.47
2022-10-13T00:40:46.565Z,13.57
2022-10-13T00:43:21.928Z,14.80
2022-10-13T00:45:50.949Z,14.87
2022-10-13T00:48:21.927Z,15.13
2022-10-13T00:50:50.265Z,15.20
2022-10-13T00:53:22.759Z,14.87
2022-10-13T00:55:52.292Z,14.77
2022-10-13T00:58:23.020Z,15.47
2022-10-13T01:00:53.088Z,14.33
2022-10-13T01:03:22.402Z,16.50
2022-10-13T01:05:52.563Z,15.23
2022-10-13T01:08:22.837Z,15.43
2022-10-13T01:11:00.011Z,15.13
2022-10-13T01:13:35.540Z,15.93
2022-10-13T01:16:14.238Z,15.23
2022-10-13T01:18:49.737Z,15.43
2022-10-13T01:21:26.905Z,15.03
2022-10-13T01:24:18.676Z,15.17
2022-10-13T01:27:28.280Z,16.13
2022-10-13T01:30:19.140Z,14.73
2022-10-13T01:32:59.168Z,14.67
2022-10-13T01:35:42.265Z,14.07
2022-10-13T01:38:22.088Z,13.97
2022-10-13T01:41:00.619Z,14.70
2022-10-13T01:43:32.222Z,14.90
2022-10-13T01:46:07.406Z,15.37
2022-10-13T01:48:39.133Z,14.83
2022-10-13T01:51:10.611Z,15.50
2022-10-13T01:53:39.743Z,14.70
2022-10-13T01:56:08.259Z,14.20
2022-10-13T01:58:38.106Z,13.53
2022-10-13T02:01:22.503Z,12.67
2022-10-13T02:04:06.195Z,14.13
2022-10-13T02:06:42.731Z,13.07
2022-10-13T02:09:15.644Z,13.47
2022-10-13T02:11:51.251Z,13.30
2022-10-13T02:14:24.101Z,14.03
2022-10-13T02:16:55.693Z,13.90
2022-10-13T02:19:24.205Z,13.30
2022-10-13T02:21:53.735Z,14.03
2022-10-13T02:24:21.855Z,14.60
2022-10-13T02:26:50.142Z,14.80
2022-10-13T02:29:19.202Z,17.07
2022-10-13T02:31:47.820Z,18.17
2022-10-13T02:34:17.660Z,16.33
2022-10-13T02:36:45.497Z,15.90
2022-10-13T02:39:13.470Z,20.17
2022-10-13T02:41:41.353Z,20.70
2022-10-13T02:44:09.206Z,23.07
2022-10-13T02:46:37.110Z,30.40
2022-10-13T02:49:05.042Z,28.80
2022-10-13T02:51:39.680Z,21.97
2022-10-13T02:54:08.250Z,20.77
2022-10-13T02:56:36.158Z,22.87
2022-10-13T02:59:04.224Z,22.73
2022-10-13T03:01:32.961Z,23.10
2022-10-13T03:04:00.929Z,21.63
2022-10-13T03:06:28.806Z,21.83
2022-10-13T03:08:58.098Z,22.63
2022-10-13T03:11:26.216Z,23.63
2022-10-13T03:13:54.315Z,26.03
2022-10-13T03:16:22.224Z,23.77
2022-10-13T03:18:50.133Z,23.60
2022-10-13T03:21:18.142Z,23.50
2022-10-13T03:23:46.070Z,23.80
2022-10-13T03:26:15.604Z,23.90
2022-10-13T03:28:43.717Z,24.07
2022-10-13T03:31:13.800Z,25.10
2022-10-13T03:33:42.153Z,23.40
2022-10-13T03:36:11.516Z,23.13
2022-10-13T03:38:39.434Z,25.07
2022-10-13T03:41:08.134Z,23.73
2022-10-13T03:43:37.424Z,23.20
2022-10-13T03:46:07.308Z,26.73
2022-10-13T03:48:36.419Z,23.63
2022-10-13T03:51:06.801Z,25.40
2022-10-13T03:53:35.208Z,24.67
2022-10-13T03:56:03.588Z,23.63
2022-10-13T03:58:31.624Z,24.47
2022-10-13T04:01:04.799Z,24.80
2022-10-13T04:03:33.726Z,26.47
2022-10-13T04:06:02.725Z,25.37
2022-10-13T04:08:30.820Z,26.87
2022-10-13T04:11:02.147Z,27.40
2022-10-13T04:13:30.428Z,26.10
2022-10-13T04:16:02.385Z,27.43
2022-10-13T04:18:31.912Z,26.50
2022-10-13T04:20:59.883Z,26.93
2022-10-13T04:23:28.036Z,26.97
2022-10-13T04:25:56.526Z,26.83
2022-10-13T04:28:25.234Z,26.57
2022-10-13T04:30:53.325Z,27.17
2022-10-13T04:33:21.609Z,26.93
2022-10-13T04:35:50.896Z,25.80
2022-10-13T04:38:18.816Z,25.63
2022-10-13T04:40:46.675Z,28.37
2022-10-13T04:43:15.863Z,27.67
2022-10-13T04:45:43.775Z,26.40
2022-10-13T04:48:11.770Z,27.37
2022-10-13T04:50:39.675Z,26.53
2022-10-13T04:53:08.915Z,26.70
2022-10-13T04:55:37.891Z,27.70
2022-10-13T04:58:05.809Z,28.83
2022-10-13T05:00:34.069Z,27.97
2022-10-13T05:03:01.983Z,29.33
2022-10-13T05:05:29.908Z,29.07
2022-10-13T05:07:57.793Z,29.77
2022-10-13T05:10:29.231Z,29.80
2022-10-13T05:13:00.463Z,31.20
2022-10-13T05:15:29.260Z,29.40
2022-10-13T05:17:57.157Z,30.97
2022-10-13T05:20:25.057Z,30.07
2022-10-13T05:22:52.913Z,29.83
2022-10-13T05:25:20.978Z,30.37
2022-10-13T05:27:50.217Z,30.33
2022-10-13T05:30:18.231Z,31.00
2022-10-13T05:32:48.308Z,32.23
2022-10-13T05:35:19.460Z,30.27
2022-10-13T05:37:47.291Z,32.10
2022-10-13T05:40:15.492Z,30.10
2022-10-13T05:42:43.485Z,29.97
2022-10-13T05:45:13.533Z,31.87
2022-10-13T05:47:41.561Z,30.00
2022-10-13T05:50:09.800Z,28.83
2022-10-13T05:52:38.641Z,27.90
2022-10-13T05:55:10.920Z,29.53
2022-10-13T05:57:41.148Z,30.30
2022-10-13T06:00:11.028Z,30.07
2022-10-13T06:02:43.544Z,29.40
2022-10-13T06:05:15.783Z,30.17
2022-10-13T06:07:44.839Z,29.17
2022-10-13T06:10:13.265Z,30.20
2022-10-13T06:12:41.387Z,30.87
2022-10-13T06:18:08.081Z,28.53
2022-10-13T06:20:36.212Z,27.67
2022-10-13T06:23:04.165Z,27.07
2022-10-13T06:25:32.209Z,28.30
2022-10-13T06:28:00.538Z,27.60
2022-10-13T06:30:28.775Z,26.93
2022-10-13T06:32:57.089Z,25.60
2022-10-13T06:35:27.352Z,25.57
2022-10-13T06:37:55.222Z,24.73
2022-10-13T06:40:23.111Z,25.47
2022-10-13T06:42:51.664Z,25.03
2022-10-13T06:45:20.374Z,24.57
2022-10-13T06:47:48.358Z,23.93
2022-10-13T06:50:16.508Z,23.77
2022-10-13T06:52:46.994Z,24.07
2022-10-13T06:55:15.601Z,24.43
2022-10-13T06:57:44.069Z,22.80
2022-10-13T07:00:12.780Z,23.77
2022-10-13T07:02:40.649Z,24.87
2022-10-13T07:05:09.250Z,23.47
2022-10-13T07:07:37.161Z,23.53
2022-10-13T07:10:07.358Z,23.63
2022-10-13T07:12:35.247Z,23.57
2022-10-13T07:15:03.130Z,23.73
2022-10-13T07:17:31.349Z,24.20
2022-10-13T07:20:01.296Z,23.80
2022-10-13T07:22:33.063Z,23.50
2022-10-13T07:25:00.984Z,23.87
2022-10-13T07:27:30.250Z,23.43
2022-10-13T07:29:58.354Z,24.20
2022-10-13T07:32:26.318Z,23.27
2022-10-13T07:34:55.295Z,23.40
2022-10-13T07:37:23.594Z,23.73
2022-10-13T07:39:51.752Z,23.73
2022-10-13T07:42:19.713Z,24.40
2022-10-13T07:44:49.035Z,23.53
2022-10-13T07:47:17.117Z,23.20
2022-10-13T07:49:45.456Z,22.90
2022-10-13T07:52:13.432Z,23.30
2022-10-13T07:54:42.486Z,23.63
2022-10-13T07:57:10.443Z,23.47
2022-10-13T07:59:38.427Z,23.47
2022-10-13T08:02:07.961Z,23.03
2022-10-13T08:04:36.498Z,23.03
2022-10-13T08:07:05.879Z,23.13
2022-10-13T08:09:34.312Z,23.60
2022-10-13T08:12:02.299Z,24.90
2022-10-13T08:14:31.692Z,24.40
2022-10-13T08:16:59.706Z,24.40
2022-10-13T08:19:28.989Z,23.53
2022-10-13T08:21:58.781Z,22.57
2022-10-13T08:24:28.375Z,22.67
2022-10-13T08:26:56.637Z,22.40
2022-10-13T08:29:24.909Z,22.87
2022-10-13T08:31:53.843Z,23.73
2022-10-13T08:34:22.865Z,22.67
2022-10-13T08:36:53.733Z,23.90
2022-10-13T08:39:22.455Z,23.30
2022-10-13T08:41:51.303Z,22.83
2022-10-13T08:45:05.892Z,22.23
2022-10-13T08:47:21.333Z,23.20
2022-10-13T08:49:49.681Z,23.00
2022-10-13T08:52:23.415Z,21.83
2022-10-13T08:54:52.133Z,22.43
2022-10-13T08:57:20.589Z,22.40
2022-10-13T08:59:49.033Z,22.70
2022-10-13T09:02:25.496Z,21.97
2022-10-13T09:04:55.058Z,22.73
2022-10-13T09:07:28.800Z,24.47
2022-10-13T09:09:57.402Z,24.10
2022-10-13T09:12:26.190Z,22.63
2022-10-13T09:15:03.338Z,23.63
2022-10-13T09:17:32.414Z,23.43
2022-10-13T09:20:02.549Z,22.70
2022-10-13T09:22:33.965Z,23.73
2022-10-13T09:25:21.045Z,23.60
2022-10-13T09:27:51.469Z,23.87
2022-10-13T09:30:29.423Z,23.93
2022-10-13T09:33:15.291Z,22.07
2022-10-13T09:35:45.619Z,23.20
2022-10-13T09:38:17.805Z,23.17
2022-10-13T09:40:56.928Z,23.03
2022-10-13T09:43:31.107Z,23.27
2022-10-13T09:46:00.687Z,22.90
2022-10-13T09:48:31.160Z,22.37
2022-10-13T09:50:59.276Z,22.33
2022-10-13T09:53:32.546Z,22.53
2022-10-13T09:56:23.660Z,23.10
2022-10-13T09:58:59.416Z,22.97
2022-10-13T10:01:32.156Z,22.60
2022-10-13T10:04:12.754Z,22.47
2022-10-13T10:06:42.482Z,21.70
2022-10-13T10:09:34.609Z,21.53
2022-10-13T10:12:04.506Z,20.93
2022-10-13T10:14:34.290Z,20.80
2022-10-13T10:17:08.869Z,22.17
2022-10-13T10:19:48.912Z,21.70
2022-10-13T10:22:27.023Z,20.57
2022-10-13T10:25:04.817Z,21.17
2022-10-13T10:27:42.928Z,21.37
2022-10-13T10:30:16.941Z,21.83
2022-10-13T10:32:53.390Z,22.00
2022-10-13T10:35:33.080Z,19.97
2022-10-13T10:38:19.398Z,20.40
2022-10-13T10:40:52.708Z,20.97
2022-10-13T10:43:43.184Z,19.87
2022-10-13T10:46:18.545Z,19.60
2022-10-13T10:48:50.292Z,19.77
2022-10-13T10:51:18.838Z,19.83
2022-10-13T10:53:59.282Z,19.97
2022-10-13T10:56:35.150Z,21.63
2022-10-13T10:59:17.548Z,20.37
2022-10-13T11:01:52.983Z,20.70
2022-10-13T11:04:36.836Z,21.77
2022-10-13T11:07:05.332Z,21.47
2022-10-13T11:10:16.617Z,21.50
2022-10-13T11:13:13.232Z,21.40
2022-10-13T11:15:46.970Z,22.07
2022-10-13T11:18:56.773Z,21.73
2022-10-13T11:21:24.697Z,21.30
2022-10-13T11:23:52.594Z,21.17
2022-10-13T11:26:43.037Z,21.67
2022-10-13T11:29:56.794Z,20.87
2022-10-13T11:32:55.093Z,21.87
2022-10-13T11:35:26.376Z,21.53
2022-10-13T11:38:11.531Z,22.37
2022-10-13T11:40:58.560Z,21.73
2022-10-13T11:43:36.089Z,20.53
2022-10-13T11:46:21.401Z,22.17
2022-10-13T11:49:23.257Z,21.83
2022-10-13T11:52:07.969Z,20.97
2022-10-13T11:54:40.581Z,21.80
2022-10-13T11:57:20.041Z,22.17
2022-10-13T11:59:49.926Z,22.57
2022-10-13T12:02:21.021Z,20.83
2022-10-13T12:05:02.521Z,21.77
2022-10-13T12:07:34.772Z,20.83
2022-10-13T12:10:06.847Z,20.77
2022-10-13T12:12:35.245Z,19.50
2022-10-13T12:15:06.742Z,20.07
2022-10-13T12:17:38.943Z,19.23
2022-10-13T12:20:22.476Z,20.63
2022-10-13T12:22:50.679Z,19.60
2022-10-13T12:25:24.953Z,20.00
2022-10-13T12:27:55.172Z,20.10
2022-10-13T12:30:24.892Z,19.03
2022-10-13T12:32:56.256Z,18.93
2022-10-13T12:35:26.380Z,17.57
2022-10-13T12:37:55.962Z,18.87
2022-10-13T12:40:24.788Z,18.87
2022-10-13T12:42:52.896Z,19.20
2022-10-13T12:45:22.853Z,18.40
2022-10-13T12:47:53.585Z,18.60
2022-10-13T12:50:38.953Z,20.10
2022-10-13T12:53:13.996Z,18.57
2022-10-13T12:55:58.900Z,18.93
2022-10-13T12:58:30.113Z,18.63
2022-10-13T13:01:26.249Z,17.67
2022-10-13T13:03:57.793Z,18.10
2022-10-13T13:06:33.582Z,18.50
2022-10-13T13:09:10.040Z,18.17
2022-10-13T13:11:39.728Z,18.53
2022-10-13T13:14:24.396Z,18.37
2022-10-13T13:17:12.209Z,18.73
2022-10-13T13:19:41.667Z,17.37
2022-10-13T13:22:11.914Z,18.57
2022-10-13T13:24:40.677Z,17.70
2022-10-13T13:27:17.625Z,16.90
2022-10-13T13:29:45.871Z,17.73
2022-10-13T13:32:15.368Z,17.90
2022-10-13T13:34:43.688Z,16.10
2022-10-13T13:37:18.351Z,17.03
2022-10-13T13:39:46.555Z,16.80
2022-10-13T13:42:15.859Z,17.47
2022-10-13T13:44:43.742Z,17.53
2022-10-13T13:47:22.858Z,18.60
2022-10-13T13:49:52.082Z,18.17
2022-10-13T13:52:22.599Z,17.53
2022-10-13T13:54:51.723Z,18.57
2022-10-13T13:57:20.958Z,17.90
2022-10-13T13:59:49.142Z,16.77
2022-10-13T14:02:20.259Z,17.80
2022-10-13T14:04:48.474Z,18.43
2022-10-13T14:07:18.507Z,18.10
2022-10-13T14:09:48.502Z,18.30
2022-10-13T14:12:16.380Z,17.80
2022-10-13T14:14:44.379Z,18.13
2022-10-13T14:17:12.277Z,17.07
2022-10-13T14:19:40.233Z,17.17
2022-10-13T14:22:09.560Z,16.87
2022-10-13T14:24:37.609Z,17.40
2022-10-13T14:27:08.967Z,17.30
2022-10-13T14:29:37.117Z,17.63
2022-10-13T14:32:05.372Z,17.63
2022-10-13T14:34:33.638Z,17.40
2022-10-13T14:37:01.954Z,15.87
2022-10-13T14:39:29.926Z,16.60
2022-10-13T14:41:57.896Z,15.77
2022-10-13T14:44:27.176Z,14.63
2022-10-13T14:46:55.083Z,14.60
2022-10-13T14:49:22.989Z,13.03
2022-10-13T14:51:50.902Z,13.67
2022-10-13T14:54:18.953Z,13.77
2022-10-13T14:56:46.939Z,12.53
2022-10-13T14:59:14.854Z,13.40
2022-10-13T15:01:44.687Z,13.30
2022-10-13T15:04:12.723Z,12.70
2022-10-13T15:06:41.139Z,12.27
2022-10-13T15:09:10.361Z,12.20
2022-10-13T15:11:38.622Z,12.13
2022-10-13T15:14:07.506Z,12.30
2022-10-13T15:16:37.027Z,11.43
2022-10-13T15:19:06.596Z,12.17
2022-10-13T15:21:34.483Z,12.03
2022-10-13T15:24:02.609Z,12.10
2022-10-13T15:26:30.528Z,12.30
2022-10-13T15:28:58.830Z,11.80
2022-10-13T15:31:26.772Z,12.30
2022-10-13T15:33:55.239Z,12.07
2022-10-13T15:36:25.490Z,12.30
2022-10-13T15:38:53.592Z,12.40
2022-10-13T15:44:16.985Z,12.77
2022-10-13T15:47:05.781Z,12.90
2022-10-13T15:49:37.781Z,12.50
2022-10-13T15:52:07.119Z,14.40
2022-10-13T15:54:35.807Z,15.20
2022-10-13T15:57:03.777Z,14.50
2022-10-13T15:59:31.654Z,14.90
2022-10-13T16:01:59.631Z,14.90
2022-10-13T16:04:27.525Z,15.63
2022-10-13T16:06:55.387Z,14.03
2022-10-13T16:09:24.680Z,14.30
2022-10-13T16:11:54.382Z,13.60
2022-10-13T16:14:22.297Z,13.52
2022-10-13T16:16:50.775Z,13.30
2022-10-13T16:19:18.679Z,13.53
2022-10-13T16:21:46.992Z,13.90
2022-10-13T16:24:14.983Z,13.63
2022-10-13T16:26:44.284Z,13.70
2022-10-13T16:29:12.176Z,14.30
2022-10-13T16:31:40.379Z,13.23
2022-10-13T16:34:08.395Z,12.87
2022-10-13T16:36:36.275Z,13.17
2022-10-13T16:39:04.182Z,12.67
2022-10-13T16:41:32.082Z,13.20
2022-10-13T16:44:01.512Z,13.77
2022-10-13T16:46:30.019Z,12.57
2022-10-13T16:48:58.813Z,12.40
2022-10-13T16:51:27.539Z,12.63
2022-10-13T16:54:03.655Z,12.47
2022-10-13T16:56:32.844Z,11.47
2022-10-13T16:59:03.966Z,12.80
2022-10-13T17:01:33.286Z,13.63
2022-10-13T17:04:01.812Z,13.80
2022-10-13T17:06:30.441Z,13.67
2022-10-13T17:08:59.081Z,12.90
2022-10-13T17:11:28.461Z,13.83
2022-10-13T17:13:57.990Z,13.27
2022-10-13T17:19:19.664Z,13.10
2022-10-13T17:21:47.621Z,14.40
2022-10-13T17:24:17.453Z,13.77
2022-10-13T17:26:45.328Z,18.10
2022-10-13T17:29:13.282Z,20.63
2022-10-13T17:31:42.582Z,17.97
2022-10-13T17:34:10.439Z,17.33
2022-10-13T17:36:38.280Z,17.80
2022-10-13T17:39:08.338Z,18.67
2022-10-13T17:41:36.841Z,18.57
2022-10-13T17:44:05.452Z,20.03
2022-10-13T17:46:37.314Z,22.40
2022-10-13T17:49:07.930Z,20.73
2022-10-13T17:51:36.326Z,17.83
2022-10-13T17:54:04.685Z,18.03
2022-10-13T17:56:32.595Z,16.93
2022-10-13T17:59:01.903Z,17.53
2022-10-13T18:01:32.752Z,15.83
2022-10-13T18:04:03.508Z,16.07
2022-10-13T18:06:38.476Z,16.53
2022-10-13T18:09:08.909Z,15.43
2022-10-13T18:11:37.207Z,15.33
2022-10-13T18:14:05.340Z,15.43
2022-10-13T18:16:36.999Z,16.13
2022-10-13T18:19:05.842Z,13.90
2022-10-13T18:21:35.177Z,15.20
2022-10-13T18:24:03.807Z,15.47
2022-10-13T18:26:34.966Z,15.83
2022-10-13T18:29:03.916Z,15.77
2022-10-13T18:31:33.985Z,14.57
2022-10-13T18:34:03.985Z,14.23
2022-10-13T18:39:27.955Z,12.17
2022-10-13T18:41:57.323Z,14.80
2022-10-13T18:44:25.433Z,15.00
2022-10-13T18:46:56.498Z,15.23
2022-10-13T18:49:30.903Z,15.40
2022-10-13T18:52:01.171Z,15.17
2022-10-13T18:54:29.999Z,12.83
2022-10-13T18:56:57.928Z,13.67
2022-10-13T18:59:25.914Z,14.23
2022-10-13T19:01:53.806Z,15.33
2022-10-13T19:04:22.405Z,14.47
2022-10-13T19:06:50.308Z,15.03
2022-10-13T19:09:21.603Z,15.70
2022-10-13T19:11:49.561Z,16.20
2022-10-13T19:14:17.430Z,15.77
2022-10-13T19:16:45.428Z,15.93
2022-10-13T19:19:14.116Z,16.47
2022-10-13T19:21:42.477Z,15.60
2022-10-13T19:24:13.656Z,15.43
2022-10-13T19:26:42.995Z,15.93
2022-10-13T19:29:12.992Z,16.53
2022-10-13T19:31:42.412Z,16.93
2022-10-13T19:34:11.071Z,17.07
2022-10-13T19:36:42.032Z,18.73
2022-10-13T19:39:14.969Z,18.13
2022-10-13T19:41:45.558Z,17.40
2022-10-13T19:44:13.809Z,16.53
2022-10-13T19:46:42.924Z,16.53
2022-10-13T19:49:11.702Z,16.37
2022-10-13T19:51:41.755Z,17.53
2022-10-13T19:54:09.921Z,16.33
2022-10-13T19:56:38.095Z,17.23
2022-10-13T19:59:07.450Z,17.63
2022-10-13T20:01:39.996Z,18.13
2022-10-13T20:04:08.241Z,17.97
2022-10-13T20:06:36.334Z,17.60
2022-10-13T20:09:05.020Z,17.47
2022-10-13T20:11:33.007Z,18.03
2022-10-13T20:14:00.895Z,17.97
2022-10-13T20:16:30.431Z,18.27
2022-10-13T20:18:59.766Z,18.73
2022-10-13T20:21:29.253Z,20.00
2022-10-13T20:23:58.429Z,18.90
2022-10-13T20:26:27.202Z,19.07
2022-10-13T20:28:55.763Z,18.23
2022-10-13T20:31:23.858Z,17.83
2022-10-13T20:33:56.731Z,18.80
2022-10-13T20:36:26.564Z,18.33
2022-10-13T20:38:55.865Z,18.00
2022-10-13T20:41:25.881Z,18.30
2022-10-13T20:43:55.789Z,18.20
2022-10-13T20:46:24.947Z,17.80
2022-10-13T20:51:44.047Z,16.80
2022-10-13T20:54:13.611Z,18.07
2022-10-13T20:56:42.204Z,17.47
2022-10-13T20:59:14.618Z,17.93
2022-10-13T21:01:42.568Z,16.73
2022-10-13T21:04:11.290Z,16.23
2022-10-13T21:06:39.767Z,15.87
2022-10-13T21:09:09.215Z,16.37
2022-10-13T21:11:37.952Z,15.33
2022-10-13T21:14:07.081Z,15.47
2022-10-13T21:16:35.684Z,15.37
2022-10-13T21:19:04.526Z,14.43
2022-10-13T21:21:34.126Z,14.37
2022-10-13T21:24:05.133Z,14.87
2022-10-13T21:26:35.029Z,15.43
2022-10-13T21:29:03.466Z,14.33
2022-10-13T21:31:31.622Z,14.43
2022-10-13T21:33:59.504Z,14.33
2022-10-13T21:36:29.412Z,13.80
2022-10-13T21:38:59.494Z,14.07
2022-10-13T21:41:29.235Z,14.83
2022-10-13T21:43:58.737Z,15.17
2022-10-13T21:46:28.320Z,14.93
2022-10-13T21:48:57.721Z,15.37
2022-10-13T21:51:29.234Z,14.97
2022-10-13T21:53:58.662Z,15.50
2022-10-13T21:56:28.096Z,15.00
2022-10-13T21:58:57.110Z,14.43
2022-10-13T22:01:27.118Z,14.23
2022-10-13T22:03:56.409Z,13.43
2022-10-13T22:06:24.749Z,13.77
2022-10-13T22:08:54.516Z,13.90
2022-10-13T22:11:23.436Z,13.90
2022-10-13T22:13:51.533Z,15.13
2022-10-13T22:16:21.807Z,14.40
2022-10-13T22:18:53.227Z,16.10
2022-10-13T22:21:23.386Z,15.73
2022-10-13T22:23:51.332Z,16.03
2022-10-13T22:26:19.865Z,16.33
2022-10-13T22:28:51.523Z,15.90
2022-10-13T22:31:20.449Z,16.97
2022-10-13T22:33:53.516Z,15.37
2022-10-13T22:36:23.354Z,15.47
2022-10-13T22:38:52.869Z,15.70
2022-10-13T22:41:21.759Z,17.00
2022-10-13T22:43:51.371Z,18.63
2022-10-13T22:46:22.828Z,18.30
2022-10-13T22:48:52.527Z,19.00
2022-10-13T22:51:22.526Z,18.17
2022-10-13T22:53:51.413Z,18.60
2022-10-13T22:56:23.103Z,18.67
2022-10-13T22:58:51.328Z,18.33
2022-10-13T23:01:20.298Z,17.90
2022-10-13T23:03:49.178Z,17.77
2022-10-13T23:06:21.510Z,18.83
2022-10-13T23:08:49.970Z,19.60
2022-10-13T23:11:18.487Z,18.97
2022-10-13T23:13:46.564Z,18.83
2022-10-13T23:16:16.675Z,19.10
2022-10-13T23:18:44.718Z,19.50
2022-10-13T23:21:14.983Z,19.93
2022-10-13T23:23:44.354Z,19.30
2022-10-13T23:26:13.899Z,19.63
2022-10-13T23:28:42.049Z,19.57
2022-10-13T23:31:13.073Z,19.03
2022-10-13T23:33:40.793Z,19.23
2022-10-13T23:36:09.752Z,18.67
2022-10-13T23:38:37.406Z,20.10
2022-10-13T23:41:08.319Z,19.93
2022-10-13T23:43:36.327Z,19.27
2022-10-13T23:46:04.617Z,20.07
2022-10-13T23:48:33.082Z,18.67
2022-10-13T23:51:06.582Z,18.30
2022-10-13T23:53:35.461Z,18.77
2022-10-13T23:56:03.755Z,19.07
2022-10-13T23:58:33.455Z,18.70
